TimeGMT,TemperatureF,Dew PointF,Humidity,Sea Level PressureIn,VisibilityMPH,Wind Direction,Wind SpeedMPH,Gust SpeedMPH,PrecipitationIn,Events,Conditions,WindDirDegrees,DateUTC
12:00 AM,44,39,77,29.75,19,WNW,15.7,,,,Partly Cloudy,290,2013-10-29 00:00:00
12:00 AM,44.6,39.2,81,29.71,6.2,WNW,15.0,-,N/A,,Partly Cloudy,290,2013-10-29 00:00:00
12:30 AM,42.8,39.2,87,29.74,6.2,WNW,13.8,-,N/A,,Partly Cloudy,290,2013-10-29 00:30:00
1:00 AM,44.6,39.2,81,29.74,6.2,WNW,12.7,-,N/A,,Partly Cloudy,300,2013-10-29 01:00:00
1:30 AM,42.8,39.2,87,29.77,6.2,West,10.4,-,N/A,,Partly Cloudy,280,2013-10-29 01:30:00
2:00 AM,44.6,39.2,81,29.77,6.2,WNW,12.7,-,N/A,,Partly Cloudy,290,2013-10-29 02:00:00
2:30 AM,44.6,39.2,81,29.77,6.2,West,11.5,-,N/A,,Partly Cloudy,280,2013-10-29 02:30:00
3:00 AM,44.6,39.2,81,29.80,6.2,West,12.7,-,N/A,,Partly Cloudy,280,2013-10-29 03:00:00
3:30 AM,44.6,39.2,81,29.80,6.2,West,12.7,-,N/A,,Partly Cloudy,280,2013-10-29 03:30:00
4:00 AM,44.6,39.2,81,29.80,6.2,West,15.0,-,N/A,,Partly Cloudy,280,2013-10-29 04:00:00
4:30 AM,44.6,39.2,81,29.83,6.2,West,12.7,-,N/A,,Partly Cloudy,280,2013-10-29 04:30:00
5:00 AM,44.6,39.2,81,29.83,6.2,West,13.8,-,N/A,,Partly Cloudy,280,2013-10-29 05:00:00
5:30 AM,44.6,39.2,81,29.83,6.2,West,10.4,-,N/A,,Partly Cloudy,280,2013-10-29 05:30:00
6:00 AM,44,40,80,29.88,19,West,8.9,,,Rain,Light Rain Showers,280,2013-10-29 06:00:00
6:00 AM,-9999,-9999,N/A,-9999,6.2,West,9.2,-,N/A,Rain,Light Rain Showers,270,2013-10-29 06:00:00
6:30 AM,44.6,39.2,81,29.86,6.2,West,11.5,-,N/A,,Scattered Clouds,280,2013-10-29 06:30:00
7:00 AM,42.8,41.0,93,29.89,6.2,West,10.4,-,N/A,,Partly Cloudy,270,2013-10-29 07:00:00
7:30 AM,42.8,41.0,93,29.92,6.2,West,11.5,-,N/A,,Scattered Clouds,270,2013-10-29 07:30:00
8:00 AM,44.6,41.0,87,29.92,6.2,West,13.8,-,N/A,,Mostly Cloudy,270,2013-10-29 08:00:00
8:30 AM,44.6,42.8,93,29.95,6.2,West,10.4,-,N/A,,Mostly Cloudy,260,2013-10-29 08:30:00
9:00 AM,46.4,42.8,87,29.95,6.2,West,11.5,-,N/A,,Scattered Clouds,260,2013-10-29 09:00:00
9:30 AM,46.4,41.0,81,29.95,6.2,West,12.7,-,N/A,,Partly Cloudy,270,2013-10-29 09:30:00
10:00 AM,48.2,41.0,76,29.95,6.2,West,13.8,-,N/A,,Scattered Clouds,280,2013-10-29 10:00:00
10:30 AM,48.2,41.0,76,29.98,6.2,West,15.0,-,N/A,,Scattered Clouds,270,2013-10-29 10:30:00
11:00 AM,48.2,41.0,76,29.98,6.2,West,16.1,-,N/A,,Mostly Cloudy,280,2013-10-29 11:00:00
11:30 AM,50.0,41.0,71,29.98,6.2,West,13.8,-,N/A,,Partly Cloudy,280,2013-10-29 11:30:00
12:00 PM,51,43,65,29.99,22,West,15.7,,,Rain,Light Rain Showers,280,2013-10-29 12:00:00
12:00 PM,50.0,42.8,76,29.98,6.2,West,16.1,-,N/A,,Scattered Clouds,280,2013-10-29 12:00:00
12:30 PM,51.8,42.8,71,29.98,6.2,West,17.3,-,N/A,,Scattered Clouds,270,2013-10-29 12:30:00
1:00 PM,51.8,41.0,67,29.98,6.2,WNW,17.3,-,N/A,,Partly Cloudy,290,2013-10-29 13:00:00
1:30 PM,51.8,42.8,71,29.98,6.2,WNW,17.3,-,N/A,,Partly Cloudy,290,2013-10-29 13:30:00
2:00 PM,51.8,39.2,62,29.98,6.2,WNW,17.3,-,N/A,,Scattered Clouds,300,2013-10-29 14:00:00
2:30 PM,50.0,41.0,71,30.01,6.2,West,11.5,-,N/A,,Mostly Cloudy,280,2013-10-29 14:30:00
3:00 PM,50.0,41.0,71,30.01,6.2,WNW,13.8,-,N/A,,Mostly Cloudy,290,2013-10-29 15:00:00
3:30 PM,50.0,41.0,71,30.01,6.2,West,10.4,-,N/A,,Mostly Cloudy,270,2013-10-29 15:30:00
4:00 PM,50.0,41.0,71,30.01,6.2,West,11.5,-,N/A,,Mostly Cloudy,270,2013-10-29 16:00:00
4:30 PM,48.2,41.0,76,30.01,6.2,West,9.2,-,N/A,,Mostly Cloudy,270,2013-10-29 16:30:00
5:00 PM,48.2,41.0,76,30.04,6.2,West,8.1,-,N/A,,Mostly Cloudy,260,2013-10-29 17:00:00
5:30 PM,46.4,41.0,81,30.04,6.2,West,6.9,-,N/A,,Mostly Cloudy,260,2013-10-29 17:30:00
6:00 PM,45,40,78,30.06,25,WSW,6.7,,,,Scattered Clouds,250,2013-10-29 18:00:00
6:00 PM,44.6,41.0,87,30.04,6.2,WSW,5.8,-,N/A,,Scattered Clouds,250,2013-10-29 18:00:00
6:30 PM,44.6,41.0,87,30.04,6.2,WSW,6.9,-,N/A,,Scattered Clouds,250,2013-10-29 18:30:00
7:00 PM,44.6,41.0,87,30.04,6.2,WSW,6.9,-,N/A,,Scattered Clouds,250,2013-10-29 19:00:00
7:30 PM,44.6,39.2,81,30.04,6.2,WSW,6.9,-,N/A,,Scattered Clouds,240,2013-10-29 19:30:00
8:00 PM,42.8,39.2,87,30.04,6.2,SW,5.8,-,N/A,,Scattered Clouds,230,2013-10-29 20:00:00
8:30 PM,42.8,41.0,93,30.04,6.2,SW,4.6,-,N/A,,Scattered Clouds,230,2013-10-29 20:30:00
9:00 PM,44.6,41.0,87,30.06,6.2,WSW,8.1,-,N/A,,Scattered Clouds,250,2013-10-29 21:00:00
9:30 PM,42.8,39.2,87,30.04,6.2,WSW,6.9,-,N/A,,Scattered Clouds,250,2013-10-29 21:30:00
10:00 PM,42.8,41.0,93,30.04,6.2,WSW,5.8,-,N/A,,Mostly Cloudy,240,2013-10-29 22:00:00
10:30 PM,41.0,39.2,93,30.06,6.2,SW,4.6,-,N/A,,Scattered Clouds,220,2013-10-29 22:30:00
11:00 PM,41.0,39.2,93,30.04,6.2,WSW,6.9,-,N/A,,Partly Cloudy,240,2013-10-29 23:00:00
11:30 PM,41.0,39.2,93,30.04,6.2,SW,4.6,-,N/A,,Partly Cloudy,230,2013-10-29 23:30:00